Time;durP1;ratioP1;P1;durP2;ratioP2;P2;SDS_P1;SDS_P2;PMS_P1;PMS_P2;Temp;Humidity;BMP_temperature;BMP_pressure;BME280_temperature;BME280_humidity;BME280_pressure;Samples;Min_cycle;Max_cycle;Signal;HPM_P1;HPM_P2
2023/11/04 00:01:28;;;;;;;4.40;2.30;;;;;;;6.24;87.73;96624.77;224498;1286;25430;-73
2023/11/04 00:07:28;;;;;;;2.20;2.00;;;;;;;6.28;87.45;96628.81;224484;1292;22560;-73
2023/11/04 00:12:31;;;;;;;2.40;2.20;;;;;;;6.32;87.44;96631.01;224530;1292;22567;-73
2023/11/04 00:17:34;;;;;;;2.60;2.10;;;;;;;6.33;87.36;96637.90;224462;1289;22559;-72
2023/11/04 00:22:37;;;;;;;2.90;2.30;;;;;;;6.32;87.25;96638.20;224611;1292;22574;-74
2023/11/04 00:27:41;;;;;;;3.00;2.40;;;;;;;6.33;87.27;96640.20;224519;1287;22555;-72
2023/11/04 00:33:00;;;;;;;;;;;;;;;;;;;;;
2023/11/04 00:38:02;;;;;;;4.20;3.20;;;;;;;6.32;87.31;96647.27;224506;1292;22579;-73
2023/11/04 00:43:05;;;;;;;2.80;2.30;;;;;;;6.31;87.46;96651.35;224304;1292;22632;-73
2023/11/04 00:48:07;;;;;;;3.80;3.00;;;;;;;6.28;87.50;96651.16;224485;1292;22713;-72
2023/11/04 00:53:22;;;;;;;3.90;2.70;;;;;;;6.23;87.42;96645.08;224517;1286;22567;-73
2023/11/04 00:58:25;;;;;;;3.60;3.10;;;;;;;6.15;87.38;96645.49;224547;1285;22572;-74
2023/11/04 01:03:42;;;;;;;3.20;2.90;;;;;;;6.08;87.75;96646.03;224460;1286;24260;-72
2023/11/04 01:08:45;;;;;;;4.80;3.50;;;;;;;6.01;87.72;96647.45;224449;1292;22590;-72
2023/11/04 01:13:51;;;;;;;3.70;3.20;;;;;;;5.98;87.92;96654.02;224466;1286;25306;-73
2023/11/04 01:18:54;;;;;;;5.00;3.60;;;;;;;5.93;88.03;96657.90;224478;1286;22559;-72
2023/11/04 01:24:07;;;;;;;3.70;3.40;;;;;;;5.90;88.01;96661.27;224522;1279;25303;-73
2023/11/04 01:29:11;;;;;;;4.70;3.30;;;;;;;5.86;88.17;96663.44;224493;1292;22555;-72
2023/11/04 01:34:16;;;;;;;3.10;2.90;;;;;;;5.82;88.46;96655.77;224362;1289;22591;-75
2023/11/04 01:39:18;;;;;;;3.40;3.00;;;;;;;5.79;88.54;96653.42;224519;1289;22571;-72
2023/11/04 01:44:26;;;;;;;4.30;3.20;;;;;;;5.78;88.27;96660.30;224218;1292;344511;-75
2023/11/04 01:49:29;;;;;;;3.50;3.20;;;;;;;5.77;88.88;96663.70;224472;1289;22590;-72
2023/11/04 01:54:33;;;;;;;3.80;3.40;;;;;;;5.76;88.54;96667.20;224491;1292;22685;-74
2023/11/04 01:59:38;;;;;;;4.50;3.40;;;;;;;5.75;88.95;96669.27;224535;1292;22567;-74
2023/11/04 02:04:41;;;;;;;4.10;3.30;;;;;;;5.73;88.86;96682.73;224508;1292;24942;-72
2023/11/04 02:09:49;;;;;;;4.00;3.70;;;;;;;5.72;89.00;96692.84;224435;1286;24288;-72
2023/11/04 02:14:52;;;;;;;5.50;4.80;;;;;;;5.72;89.05;96699.73;224377;1291;22695;-72
2023/11/04 02:20:00;;;;;;;4.70;3.80;;;;;;;5.72;88.92;96705.63;224451;1292;22567;-73
2023/11/04 02:25:06;;;;;;;5.80;5.10;;;;;;;5.73;89.09;96716.38;224552;1292;22557;-73
2023/11/04 02:30:11;;;;;;;6.20;5.30;;;;;;;5.75;89.43;96721.41;224355;1289;22572;-73
2023/11/04 02:35:15;;;;;;;9.70;4.80;;;;;;;5.80;89.23;96729.13;224487;1276;22592;-73
2023/11/04 02:40:18;;;;;;;4.80;4.30;;;;;;;5.88;89.23;96733.59;224318;1292;22687;-73
2023/11/04 02:45:28;;;;;;;5.40;4.30;;;;;;;5.96;89.15;96730.61;224496;1292;22574;-73
2023/11/04 02:50:31;;;;;;;4.70;4.30;;;;;;;5.98;88.98;96741.69;224563;1287;24265;-73
2023/11/04 02:55:34;;;;;;;4.60;4.20;;;;;;;5.99;89.26;96752.94;224582;1289;25321;-73
2023/11/04 03:00:37;;;;;;;4.60;4.00;;;;;;;6.00;89.27;96748.17;224353;1291;24933;-73
2023/11/04 03:05:39;;;;;;;5.20;3.90;;;;;;;6.01;89.20;96751.60;224485;1292;22590;-73
2023/11/04 03:10:46;;;;;;;7.70;4.50;;;;;;;6.02;89.16;96763.17;224515;1292;22567;-73
2023/11/04 03:16:19;;;;;;;4.50;3.90;;;;;;;6.04;88.99;96771.67;224619;1289;24257;-72
2023/11/04 03:21:35;;;;;;;6.20;4.20;;;;;;;6.09;88.88;96771.04;224457;1292;23473;-73
2023/11/04 03:26:40;;;;;;;6.00;3.90;;;;;;;6.16;88.91;96772.50;224648;1286;22566;-73
2023/11/04 03:31:46;;;;;;;5.10;3.80;;;;;;;6.22;88.60;96773.73;224492;1292;24243;-72
2023/11/04 03:36:48;;;;;;;5.50;3.60;;;;;;;6.26;88.45;96779.62;224504;1292;22555;-72
2023/11/04 03:41:50;;;;;;;4.80;2.90;;;;;;;6.30;88.74;96785.73;224375;1292;22590;-73
2023/11/04 03:47:01;;;;;;;3.90;3.10;;;;;;;6.32;88.05;96792.27;224500;1292;22567;-74
2023/11/04 03:52:09;;;;;;;5.60;3.50;;;;;;;6.33;88.12;96814.70;224519;1292;22543;-72
2023/11/04 03:57:25;;;;;;;;;;;;;;;;;;;;;
2023/11/04 04:02:51;;;;;;;5.70;3.70;;;;;;;6.33;88.19;96819.46;224541;1292;22560;-73
2023/11/04 04:07:59;;;;;;;7.60;4.20;;;;;;;6.32;88.30;96818.73;224478;1291;22559;-72
2023/11/04 04:13:05;;;;;;;4.90;4.10;;;;;;;6.32;87.85;96823.05;224597;1292;22578;-73
2023/11/04 04:18:07;;;;;;;4.00;3.30;;;;;;;6.34;88.03;96826.19;224208;1292;22622;-73
2023/11/04 04:23:11;;;;;;;4.90;3.80;;;;;;;6.40;88.12;96827.04;224493;1292;22548;-73
2023/11/04 04:28:13;;;;;;;5.20;3.80;;;;;;;6.46;88.05;96830.40;224475;1292;22560;-73
2023/11/04 04:33:16;;;;;;;4.80;3.60;;;;;;;6.52;88.19;96826.90;224499;1279;22551;-74
2023/11/04 04:38:19;;;;;;;4.50;3.00;;;;;;;6.57;87.99;96828.48;224577;1285;22556;-73
2023/11/04 04:43:22;;;;;;;4.70;3.20;;;;;;;6.60;87.66;96838.15;224486;1292;22563;-72
2023/11/04 04:48:25;;;;;;;3.60;3.00;;;;;;;6.60;87.77;96857.17;224644;1286;22566;-73
2023/11/04 04:53:30;;;;;;;5.60;2.80;;;;;;;6.58;87.84;96853.95;224702;1292;22716;-73
2023/11/04 04:58:33;;;;;;;4.90;3.20;;;;;;;6.57;87.62;96867.86;224534;1292;22562;-74
2023/11/04 05:03:38;;;;;;;5.30;3.40;;;;;;;6.57;87.99;96867.76;224515;1292;22552;-74
2023/11/04 05:08:42;;;;;;;4.30;3.50;;;;;;;6.57;87.38;96863.63;224574;1289;24387;-72
2023/11/04 05:13:44;;;;;;;6.20;3.60;;;;;;;6.56;87.81;96859.52;224478;1292;22546;-73
2023/11/04 05:18:51;;;;;;;6.20;3.40;;;;;;;6.53;87.72;96858.10;224493;1292;22567;-72
2023/11/04 05:23:56;;;;;;;5.30;3.00;;;;;;;6.48;87.51;96862.48;224497;1292;22573;-72
2023/11/04 05:28:59;;;;;;;4.90;3.80;;;;;;;6.43;87.47;96879.48;224661;1289;22628;-72
2023/11/04 05:34:01;;;;;;;8.70;4.70;;;;;;;6.41;87.65;96894.78;224478;1292;22607;-72
2023/11/04 05:39:05;;;;;;;6.00;4.50;;;;;;;6.43;88.03;96900.39;224484;1291;22560;-73
2023/11/04 05:44:07;;;;;;;6.20;4.70;;;;;;;6.47;87.77;96903.16;224512;1292;22564;-72
2023/11/04 05:49:10;;;;;;;8.00;4.80;;;;;;;6.50;87.49;96907.39;224477;1292;22546;-73
2023/11/04 05:54:23;;;;;;;8.40;4.50;;;;;;;6.49;87.32;96905.50;224515;1283;22570;-73
2023/11/04 05:59:31;;;;;;;7.90;5.50;;;;;;;6.46;87.62;96907.28;224597;1292;22563;-73
2023/11/04 06:04:34;;;;;;;7.00;4.80;;;;;;;6.43;87.69;96906.40;224514;1292;22548;-73
2023/11/04 06:09:38;;;;;;;8.40;5.40;;;;;;;6.37;87.52;96905.75;224608;1283;25291;-73
2023/11/04 06:14:41;;;;;;;7.90;5.40;;;;;;;6.33;87.66;96902.45;224514;1291;22606;-73
2023/11/04 06:19:45;;;;;;;10.00;5.80;;;;;;;6.28;87.45;96906.61;224547;1292;22567;-73
2023/11/04 06:24:48;;;;;;;8.20;5.10;;;;;;;6.24;87.73;96915.73;224643;1292;22651;-73
2023/11/04 06:29:54;;;;;;;7.00;5.70;;;;;;;6.20;87.22;96923.52;224532;1292;22698;-74
2023/11/04 06:34:58;;;;;;;7.60;5.30;;;;;;;6.17;87.75;96923.64;224540;1286;22558;-74
2023/11/04 06:40:01;;;;;;;6.20;4.60;;;;;;;6.17;87.65;96932.30;224395;1292;22562;-73
2023/11/04 06:45:04;;;;;;;5.90;4.50;;;;;;;6.17;88.18;96934.16;224675;1289;25431;-73
2023/11/04 06:50:09;;;;;;;8.80;5.50;;;;;;;6.28;88.02;96939.86;224612;1289;22578;-73
2023/11/04 06:55:11;;;;;;;6.60;5.30;;;;;;;6.41;87.97;96948.41;224580;1292;22588;-73
2023/11/04 07:00:17;;;;;;;7.30;5.10;;;;;;;6.45;87.43;96951.88;224492;1292;22939;-73
2023/11/04 07:05:22;;;;;;;6.80;5.10;;;;;;;6.49;87.59;96952.71;224639;1289;22552;-73
2023/11/04 07:10:28;;;;;;;7.90;5.20;;;;;;;6.58;87.88;96949.73;224619;1289;24334;-72
2023/11/04 07:15:37;;;;;;;8.60;6.40;;;;;;;6.74;87.89;96946.48;224573;1291;22543;-73
2023/11/04 07:20:51;;;;;;;;;;;;;;;;;;;;;
2023/11/04 07:26:17;;;;;;;8.40;5.00;;;;;;;7.42;88.00;96939.38;224486;1292;22552;-73
2023/11/04 07:32:03;;;;;;;7.10;4.60;;;;;;;7.51;87.03;96931.63;224626;1289;22584;-75
2023/11/04 07:37:18;;;;;;;8.50;4.30;;;;;;;7.58;86.47;96930.36;224534;1291;22609;-74
2023/11/04 07:42:23;;;;;;;8.40;4.00;;;;;;;7.65;86.54;96933.75;224541;1270;24250;-74
2023/11/04 07:47:26;;;;;;;5.40;3.90;;;;;;;7.71;86.30;96939.48;224401;1285;22583;-74
2023/11/04 07:52:31;;;;;;;6.80;3.90;;;;;;;7.81;86.52;96942.31;224295;1289;22559;-74
2023/11/04 07:58:00;;;;;;;7.00;3.60;;;;;;;7.91;85.82;96938.61;223592;1274;22555;-74
2023/11/04 08:03:06;;;;;;;5.60;3.60;;;;;;;7.98;85.66;96934.11;223545;1289;25269;-73
2023/11/04 08:08:12;;;;;;;4.60;3.00;;;;;;;8.04;84.68;96927.77;223714;1289;22559;-74
2023/11/04 08:13:15;;;;;;;7.60;3.40;;;;;;;8.09;84.90;96928.54;223703;1279;22553;-74
2023/11/04 08:18:32;;;;;;;;;;;;;;;;;;;;;
2023/11/04 08:24:03;;;;;;;6.50;2.80;;;;;;;8.32;84.24;96930.02;224341;1271;22557;-73
2023/11/04 08:29:19;;;;;;;3.90;2.70;;;;;;;8.42;83.53;96930.40;224110;1273;22564;-74
2023/11/04 08:34:38;;;;;;;4.80;2.50;;;;;;;8.50;82.86;96932.48;224208;1273;22884;-74
2023/11/04 08:39:42;;;;;;;3.40;2.40;;;;;;;8.62;83.62;96935.75;223911;1291;22596;-73
2023/11/04 08:44:45;;;;;;;2.90;2.60;;;;;;;8.74;82.78;96927.34;224321;1273;22565;-73
2023/11/04 08:49:48;;;;;;;3.10;2.50;;;;;;;8.83;82.53;96921.36;224222;1286;22619;-74
2023/11/04 08:55:04;;;;;;;;;;;;;;;;;;;;;
2023/11/04 09:00:31;;;;;;;;;;;;;;;;;;;;;
2023/11/04 09:05:34;;;;;;;4.50;2.60;;;;;;;9.71;81.74;96924.13;224322;1291;22586;-73
2023/11/04 09:10:42;;;;;;;3.80;2.70;;;;;;;9.86;81.08;96928.73;224309;1273;22543;-73
2023/11/04 09:16:08;;;;;;;;;;;;;;;;;;;;;
2023/11/04 09:21:19;;;;;;;5.50;2.70;;;;;;;9.69;80.17;96925.85;224185;1287;25938;-73
2023/11/04 09:26:35;;;;;;;4.10;2.50;;;;;;;9.62;79.90;96927.44;224183;1277;22556;-72
2023/11/04 09:31:40;;;;;;;4.90;2.30;;;;;;;9.62;79.88;96923.63;224267;1287;22612;-73
2023/11/04 09:36:43;;;;;;;3.30;2.30;;;;;;;9.64;79.69;96919.25;224269;1289;22749;-74
2023/11/04 09:41:51;;;;;;;3.40;2.20;;;;;;;9.70;79.54;96909.20;224267;1284;23028;-74
2023/11/04 09:46:54;;;;;;;4.20;1.90;;;;;;;9.79;79.44;96912.05;224392;1289;22613;-75
2023/11/04 09:52:01;;;;;;;2.00;1.40;;;;;;;9.90;78.74;96913.95;224313;1274;22549;-77
2023/11/04 09:57:08;;;;;;;3.20;1.60;;;;;;;10.01;78.40;96912.89;224378;1291;22563;-78
2023/11/04 10:02:12;;;;;;;3.00;1.90;;;;;;;10.13;77.86;96910.35;224184;1286;22549;-78
2023/11/04 10:07:15;;;;;;;3.80;1.70;;;;;;;10.21;77.53;96903.38;224390;1276;22559;-78
2023/11/04 10:12:34;;;;;;;4.60;1.80;;;;;;;10.24;77.30;96905.19;224266;1290;22588;-78
2023/11/04 10:17:40;;;;;;;3.90;1.80;;;;;;;10.39;77.38;96907.77;224240;1283;22569;-78
2023/11/04 10:22:49;;;;;;;3.10;1.40;;;;;;;10.56;76.09;96900.96;224165;1286;22566;-77
2023/11/04 10:27:52;;;;;;;3.00;1.80;;;;;;;10.72;75.52;96892.30;224203;1284;22563;-79
2023/11/04 10:33:13;;;;;;;2.20;1.20;;;;;;;10.83;74.63;96888.56;224190;1289;25826;-78
2023/11/04 10:38:17;;;;;;;2.70;1.40;;;;;;;10.98;74.86;96876.52;224351;1285;22559;-78
2023/11/04 10:43:25;;;;;;;2.00;1.30;;;;;;;11.03;73.73;96861.75;224234;1289;22580;-79
2023/11/04 10:48:53;;;;;;;4.10;2.10;;;;;;;10.98;73.65;96856.86;223960;1286;25292;-78
2023/11/04 10:54:16;;;;;;;4.20;1.50;;;;;;;10.94;73.55;96853.10;224186;1277;22581;-77
2023/11/04 10:59:57;;;;;;;1.80;1.20;;;;;;;10.95;72.80;96847.10;224307;1273;22587;-77
2023/11/04 11:05:34;;;;;;;2.50;1.00;;;;;;;10.93;71.81;96841.94;224226;1269;23868;-78
2023/11/04 11:10:52;;;;;;;2.50;1.10;;;;;;;10.95;71.41;96844.71;223988;1273;24214;-77
2023/11/04 11:15:58;;;;;;;2.80;1.20;;;;;;;10.99;71.39;96844.45;224096;1289;25424;-79
2023/11/04 11:21:20;;;;;;;3.90;1.10;;;;;;;10.93;71.20;96840.77;224178;1289;22709;-79
2023/11/04 11:26:24;;;;;;;2.70;1.00;;;;;;;10.96;71.65;96833.91;224234;1272;22672;-78
2023/11/04 11:31:28;;;;;;;2.70;0.90;;;;;;;10.93;71.13;96823.45;223570;1279;25368;-79
2023/11/04 11:36:32;;;;;;;2.80;1.30;;;;;;;10.80;70.04;96820.98;224102;1273;24243;-79
2023/11/04 11:41:43;;;;;;;1.30;1.00;;;;;;;10.73;69.53;96823.81;224073;1290;22559;-78
2023/11/04 11:46:56;;;;;;;2.90;1.20;;;;;;;10.70;69.70;96818.52;223963;1285;22631;-79
2023/11/04 11:52:00;;;;;;;3.50;1.00;;;;;;;10.63;69.69;96815.34;224171;1283;22550;-79
2023/11/04 11:57:13;;;;;;;2.30;1.00;;;;;;;10.58;69.88;96808.38;223977;1291;22563;-79
2023/11/04 12:02:17;;;;;;;3.20;1.00;;;;;;;10.61;69.51;96791.54;224090;1273;22584;-79
2023/11/04 12:07:32;;;;;;;2.70;1.00;;;;;;;10.78;70.52;96787.77;223671;1292;22584;-79
2023/11/04 12:12:37;;;;;;;4.20;1.10;;;;;;;10.85;69.97;96786.25;224141;1292;22581;-79
2023/11/04 12:17:56;;;;;;;;;;;;;;;10.78;70.02;96778.23;224404;1292;22655;-79
2023/11/04 12:23:14;;;;;;;3.20;1.60;;;;;;;10.71;70.37;96777.45;224313;1289;22565;-80
2023/11/04 12:28:19;;;;;;;6.00;3.20;;;;;;;10.66;70.81;96780.06;224508;1289;22567;-80
2023/11/04 12:33:22;;;;;;;2.30;1.70;;;;;;;10.70;71.15;96777.75;224345;1292;24419;-79
2023/11/04 12:38:26;;;;;;;2.10;1.70;;;;;;;10.74;71.05;96773.70;224452;1293;22627;-79
2023/11/04 12:43:30;;;;;;;3.50;2.10;;;;;;;10.76;71.00;96773.89;224363;1293;22586;-78
2023/11/04 12:48:33;;;;;;;2.80;1.80;;;;;;;10.80;70.92;96772.86;224454;1291;25515;-79
2023/11/04 12:53:35;;;;;;;4.60;2.50;;;;;;;10.93;71.24;96765.63;224395;1292;22566;-80
2023/11/04 12:58:49;;;;;;;3.60;1.80;;;;;;;11.16;71.38;96758.90;224305;1292;22606;-79
2023/11/04 13:03:54;;;;;;;5.20;2.30;;;;;;;11.36;71.32;96757.02;224260;1293;22563;-80
2023/11/04 13:08:57;;;;;;;4.00;1.90;;;;;;;11.43;70.84;96758.46;224387;1292;22616;-79
2023/11/04 13:14:00;;;;;;;3.70;2.20;;;;;;;11.38;70.22;96762.82;224314;1292;22562;-80
2023/11/04 13:19:03;;;;;;;3.60;2.10;;;;;;;11.24;70.31;96756.55;224103;1292;22558;-81
2023/11/04 13:24:11;;;;;;;3.10;2.30;;;;;;;11.08;69.98;96747.30;224409;1292;25335;-79
2023/11/04 13:29:14;;;;;;;3.60;2.00;;;;;;;10.87;70.23;96741.64;224407;1293;22559;-80
2023/11/04 13:34:20;;;;;;;3.30;2.10;;;;;;;10.75;70.57;96738.55;224171;1293;22570;-81
2023/11/04 13:39:25;;;;;;;3.90;2.40;;;;;;;10.70;70.69;96735.77;224496;1293;22562;-80
2023/11/04 13:44:40;;;;;;;3.80;1.70;;;;;;;10.67;70.82;96743.85;223858;1292;792679;-81
2023/11/04 13:49:42;;;;;;;3.60;2.10;;;;;;;10.74;70.92;96744.42;224361;1293;22562;-80
2023/11/04 13:54:45;;;;;;;3.80;2.00;;;;;;;10.79;70.85;96747.80;224412;1292;22562;-81
2023/11/04 13:59:51;;;;;;;2.90;1.50;;;;;;;10.85;71.03;96744.66;224377;1292;22572;-80
2023/11/04 14:05:13;;;;;;;3.50;2.00;;;;;;;10.91;71.07;96744.18;224377;1293;22551;-80
2023/11/04 14:10:17;;;;;;;3.60;2.10;;;;;;;11.05;71.26;96733.69;224454;1293;22562;-81
2023/11/04 14:15:22;;;;;;;3.90;2.40;;;;;;;11.15;71.03;96727.97;224497;1293;22549;-81
2023/11/04 14:20:31;;;;;;;4.10;2.60;;;;;;;11.16;70.76;96732.41;224391;1292;22618;-80
2023/11/04 14:25:35;;;;;;;3.80;2.40;;;;;;;11.04;70.46;96732.18;224436;1287;22546;-81
2023/11/04 14:30:37;;;;;;;4.10;2.20;;;;;;;10.87;70.50;96723.40;224472;1293;22573;-79
2023/11/04 14:35:40;;;;;;;3.60;2.20;;;;;;;10.71;70.62;96718.71;224510;1287;22579;-80
2023/11/04 14:40:43;;;;;;;3.60;2.40;;;;;;;10.52;70.84;96720.52;224520;1293;22582;-79
2023/11/04 14:45:48;;;;;;;5.60;3.30;;;;;;;10.36;71.40;96716.54;224409;1293;25035;-79
2023/11/04 14:51:11;;;;;;;7.30;3.80;;;;;;;10.19;71.55;96711.41;224483;1292;23193;-80
2023/11/04 14:56:14;;;;;;;6.10;3.60;;;;;;;10.01;71.74;96713.16;224476;1292;22562;-80
2023/11/04 15:01:21;;;;;;;6.40;3.30;;;;;;;9.84;72.12;96713.21;224374;1289;22566;-80
2023/11/04 15:06:24;;;;;;;7.10;4.80;;;;;;;9.66;72.49;96709.25;224489;1292;22551;-80
2023/11/04 15:11:29;;;;;;;6.50;4.10;;;;;;;9.45;72.82;96709.14;224190;1292;22659;-79
2023/11/04 15:16:37;;;;;;;8.10;3.40;;;;;;;9.25;72.89;96705.97;224477;1290;22569;-80
2023/11/04 15:21:49;;;;;;;6.40;3.70;;;;;;;9.05;73.21;96697.47;224471;1290;22579;-79
2023/11/04 15:26:53;;;;;;;6.50;4.10;;;;;;;8.87;73.54;96695.38;224472;1290;22682;-80
2023/11/04 15:31:59;;;;;;;12.10;5.50;;;;;;;8.70;73.72;96689.85;224334;1293;22573;-80
2023/11/04 15:37:03;;;;;;;9.70;5.40;;;;;;;8.54;73.85;96681.80;224291;1292;22576;-81
2023/11/04 15:42:06;;;;;;;13.10;7.60;;;;;;;8.39;74.12;96675.48;224426;1293;22555;-81
2023/11/04 15:47:09;;;;;;;21.00;13.10;;;;;;;8.24;74.40;96670.09;224508;1289;24243;-80
2023/11/04 15:52:14;;;;;;;20.40;13.20;;;;;;;8.11;74.51;96663.55;224409;1289;22631;-81
2023/11/04 15:57:19;;;;;;;21.10;13.10;;;;;;;7.97;74.77;96655.10;224481;1289;22626;-80
2023/11/04 16:02:23;;;;;;;27.40;15.80;;;;;;;7.83;75.22;96652.10;224453;1286;22587;-81
2023/11/04 16:07:25;;;;;;;34.30;17.10;;;;;;;7.69;75.46;96646.83;224378;1292;22559;-81
2023/11/04 16:12:28;;;;;;;29.70;15.90;;;;;;;7.57;76.16;96640.44;224503;1292;22611;-81
2023/11/04 16:17:35;;;;;;;29.90;15.50;;;;;;;7.48;76.04;96638.56;224474;1292;25309;-80
2023/11/04 16:22:40;;;;;;;49.90;26.40;;;;;;;7.39;76.30;96642.48;224354;1292;22566;-81
2023/11/04 16:27:52;;;;;;;62.00;30.60;;;;;;;7.30;76.25;96637.75;224361;1292;22630;-81
2023/11/04 16:32:57;;;;;;;57.00;31.40;;;;;;;7.21;76.67;96641.18;224412;1292;22558;-81
2023/11/04 16:38:04;;;;;;;61.10;34.80;;;;;;;7.11;76.72;96633.58;224152;1292;22565;-79
2023/11/04 16:43:08;;;;;;;54.40;32.00;;;;;;;6.99;77.03;96623.80;224457;1292;22570;-80
2023/11/04 16:48:18;;;;;;;43.70;25.10;;;;;;;6.88;77.18;96618.86;224364;1293;22585;-80
2023/11/04 16:53:24;;;;;;;35.70;21.60;;;;;;;6.78;77.53;96606.39;224476;1292;22549;-81
2023/11/04 16:58:29;;;;;;;33.00;20.60;;;;;;;6.70;77.45;96596.89;224476;1293;22637;-81
2023/11/04 17:03:32;;;;;;;36.70;22.30;;;;;;;6.62;77.16;96592.41;224222;1293;22576;-81
2023/11/04 17:08:45;;;;;;;37.90;23.20;;;;;;;6.54;77.62;96584.65;224522;1289;22559;-82
2023/11/04 17:13:48;;;;;;;44.20;24.30;;;;;;;6.44;77.75;96578.98;224403;1292;22575;-81
2023/11/04 17:18:54;;;;;;;40.10;22.60;;;;;;;6.35;77.82;96578.70;224378;1291;22593;-81
2023/11/04 17:23:57;;;;;;;46.10;23.90;;;;;;;6.27;78.13;96575.13;224510;1292;22563;-80
2023/11/04 17:29:01;;;;;;;42.60;25.90;;;;;;;6.17;78.47;96567.80;224341;1289;22575;-80
2023/11/04 17:34:05;;;;;;;45.10;25.50;;;;;;;6.06;78.75;96561.31;224371;1289;22598;-79
2023/11/04 17:39:08;;;;;;;41.10;23.50;;;;;;;5.94;78.89;96550.23;224489;1292;22596;-80
2023/11/04 17:44:12;;;;;;;51.60;30.60;;;;;;;5.81;78.98;96546.07;224260;1292;24230;-80
2023/11/04 17:49:14;;;;;;;39.40;23.10;;;;;;;5.69;79.39;96538.70;224537;1288;22631;-80
2023/11/04 17:54:18;;;;;;;36.40;22.00;;;;;;;5.57;79.50;96528.46;224278;1289;22958;-80
2023/11/04 17:59:26;;;;;;;41.80;23.50;;;;;;;5.49;79.91;96523.84;224490;1293;22589;-79
2023/11/04 18:04:29;;;;;;;42.40;25.00;;;;;;;5.40;79.84;96513.91;224339;1292;22600;-81
2023/11/04 18:09:32;;;;;;;45.20;24.70;;;;;;;5.31;79.84;96510.79;224396;1289;22560;-80
2023/11/04 18:14:35;;;;;;;39.70;23.40;;;;;;;5.23;80.02;96503.17;224358;1292;24275;-80
2023/11/04 18:19:42;;;;;;;38.40;22.00;;;;;;;5.16;80.53;96492.80;224255;1292;22581;-80
2023/11/04 18:24:45;;;;;;;38.20;22.80;;;;;;;5.10;80.32;96496.56;224491;1289;22558;-79
2023/11/04 18:29:48;;;;;;;40.40;24.40;;;;;;;5.05;80.61;96498.77;224459;1289;24208;-80
2023/11/04 18:34:50;;;;;;;40.10;23.20;;;;;;;4.97;80.36;96495.02;224254;1292;23076;-80
2023/11/04 18:39:52;;;;;;;46.60;25.50;;;;;;;4.91;80.76;96493.80;224261;1277;22581;-80
2023/11/04 18:44:56;;;;;;;49.50;28.40;;;;;;;4.86;81.46;96507.77;224520;1292;22601;-81
2023/11/04 18:49:59;;;;;;;50.90;29.90;;;;;;;4.79;81.15;96505.56;224512;1289;22562;-81
2023/11/04 18:55:05;;;;;;;58.50;32.80;;;;;;;4.73;81.25;96506.77;224341;1292;22561;-80
2023/11/04 19:00:09;;;;;;;56.40;30.30;;;;;;;4.66;81.71;96503.12;224363;1292;22578;-80
2023/11/04 19:05:15;;;;;;;52.10;27.30;;;;;;;4.59;81.64;96493.01;224390;1292;22597;-80
2023/11/04 19:10:19;;;;;;;48.70;27.10;;;;;;;4.55;81.88;96485.10;224350;1292;22558;-80
2023/11/04 19:15:34;;;;;;;;;;;;;;;;;;;;;
2023/11/04 19:21:04;;;;;;;50.00;25.90;;;;;;;4.45;82.08;96489.23;224412;1291;22569;-80
2023/11/04 19:26:09;;;;;;;51.60;26.50;;;;;;;4.39;82.32;96481.48;224558;1280;22555;-81
2023/11/04 19:31:17;;;;;;;49.40;26.50;;;;;;;4.34;82.02;96470.84;224550;1289;22568;-81
2023/11/04 19:36:30;;;;;;;42.60;23.80;;;;;;;4.34;82.65;96464.96;224203;1292;22619;-81
2023/11/04 19:41:34;;;;;;;37.30;21.50;;;;;;;4.40;82.75;96461.59;224282;1292;24502;-81
2023/11/04 19:46:42;;;;;;;40.10;22.00;;;;;;;4.50;82.88;96460.13;224345;1292;22569;-81
2023/11/04 19:51:45;;;;;;;38.60;21.80;;;;;;;4.57;82.81;96456.41;224407;1292;24259;-80
2023/11/04 19:56:50;;;;;;;36.30;20.80;;;;;;;4.59;82.93;96434.73;224356;1293;22570;-80
2023/11/04 20:01:55;;;;;;;32.70;18.80;;;;;;;4.60;82.98;96426.02;224359;1289;22560;-81
2023/11/04 20:06:59;;;;;;;30.80;18.80;;;;;;;4.63;82.87;96418.84;224430;1292;22555;-81
2023/11/04 20:12:03;;;;;;;31.90;17.70;;;;;;;4.67;83.02;96412.84;224214;1292;26080;-79
2023/11/04 20:17:06;;;;;;;32.30;17.10;;;;;;;4.71;82.82;96410.92;224235;1292;22559;-80
2023/11/04 20:22:08;;;;;;;27.50;17.50;;;;;;;4.75;83.22;96407.80;224469;1292;22574;-81
2023/11/04 20:27:13;;;;;;;27.70;16.70;;;;;;;4.77;83.28;96399.48;224397;1292;22559;-80
2023/11/04 20:32:16;;;;;;;30.80;17.80;;;;;;;4.77;82.99;96397.20;224514;1286;22547;-80
2023/11/04 20:37:22;;;;;;;26.00;16.70;;;;;;;4.79;83.17;96387.02;224361;1291;22577;-81
2023/11/04 20:42:25;;;;;;;28.50;16.90;;;;;;;4.81;83.26;96377.27;224489;1292;22562;-81
2023/11/04 20:47:28;;;;;;;29.30;15.40;;;;;;;4.84;82.93;96367.15;224364;1292;22550;-80
2023/11/04 20:52:31;;;;;;;22.90;13.20;;;;;;;4.85;83.08;96356.11;224323;1292;22691;-80
2023/11/04 20:57:34;;;;;;;21.50;12.20;;;;;;;4.89;83.04;96336.61;224396;1292;22562;-80
2023/11/04 21:02:39;;;;;;;23.50;13.20;;;;;;;4.95;82.88;96325.49;224367;1292;23296;-80
2023/11/04 21:07:42;;;;;;;32.60;18.90;;;;;;;5.02;82.94;96315.30;224508;1292;22564;-80
2023/11/04 21:12:46;;;;;;;31.40;18.20;;;;;;;5.06;82.93;96311.19;224499;1289;25262;-80
2023/11/04 21:17:52;;;;;;;32.30;18.70;;;;;;;5.09;82.86;96319.26;224481;1290;22558;-80
2023/11/04 21:22:57;;;;;;;32.30;18.50;;;;;;;5.14;83.03;96315.48;224468;1289;23459;-80
2023/11/04 21:28:10;;;;;;;25.90;16.20;;;;;;;5.16;82.57;96316.23;224501;1289;22587;-79
2023/11/04 21:33:16;;;;;;;27.40;15.10;;;;;;;5.15;82.37;96316.00;224371;1293;22619;-80
2023/11/04 21:38:19;;;;;;;23.30;13.30;;;;;;;5.15;82.57;96314.11;224376;1289;22546;-80
2023/11/04 21:43:21;;;;;;;20.10;11.70;;;;;;;5.16;82.50;96315.02;224385;1292;22570;-81
2023/11/04 21:48:25;;;;;;;21.00;11.40;;;;;;;5.24;82.49;96309.48;224516;1289;22587;-80
2023/11/04 21:53:28;;;;;;;19.80;10.70;;;;;;;5.36;82.53;96302.85;224582;1292;24238;-81
2023/11/04 21:58:30;;;;;;;16.80;9.30;;;;;;;5.44;82.19;96304.21;224409;1292;22576;-80
2023/11/04 22:03:33;;;;;;;15.50;8.90;;;;;;;5.52;82.04;96293.97;224488;1289;22579;-80
2023/11/04 22:08:41;;;;;;;14.60;8.10;;;;;;;5.61;82.18;96290.22;224402;1283;22930;-80
2023/11/04 22:13:47;;;;;;;14.50;7.70;;;;;;;5.71;82.04;96286.36;224470;1286;22569;-81
2023/11/04 22:18:51;;;;;;;14.20;7.60;;;;;;;5.80;81.63;96272.92;224523;1292;23031;-81
2023/11/04 22:23:54;;;;;;;16.60;8.20;;;;;;;5.87;81.42;96274.10;224369;1289;23275;-80
2023/11/04 22:28:57;;;;;;;15.30;8.40;;;;;;;5.93;81.18;96276.05;224409;1292;22596;-81
2023/11/04 22:34:01;;;;;;;12.60;7.50;;;;;;;5.98;81.30;96272.61;224460;1292;22585;-81
2023/11/04 22:39:09;;;;;;;13.10;7.40;;;;;;;6.03;81.24;96269.98;224409;1292;22647;-80
2023/11/04 22:44:21;;;;;;;12.40;7.00;;;;;;;6.08;81.01;96269.70;224382;1287;22566;-80
2023/11/04 22:49:24;;;;;;;13.80;7.00;;;;;;;6.15;80.67;96262.68;224461;1292;22572;-79
2023/11/04 22:54:35;;;;;;;13.50;7.60;;;;;;;6.21;80.50;96275.66;224361;1292;22628;-80
2023/11/04 22:59:39;;;;;;;10.60;6.80;;;;;;;6.30;80.66;96276.72;224403;1292;24228;-81
2023/11/04 23:04:41;;;;;;;13.30;6.80;;;;;;;6.37;80.24;96270.73;224490;1286;22572;-80
2023/11/04 23:09:44;;;;;;;14.80;6.70;;;;;;;6.44;80.19;96265.06;224383;1292;22553;-82
2023/11/04 23:14:47;;;;;;;13.00;6.90;;;;;;;6.48;80.51;96266.42;224424;1292;25344;-81
2023/11/04 23:19:49;;;;;;;13.30;7.20;;;;;;;6.48;79.84;96257.46;224517;1289;22586;-81
2023/11/04 23:24:55;;;;;;;11.40;7.00;;;;;;;6.46;79.72;96262.70;224527;1292;22573;-81
2023/11/04 23:30:06;;;;;;;11.40;6.20;;;;;;;6.46;79.98;96251.00;224374;1292;22599;-81
2023/11/04 23:35:10;;;;;;;10.20;5.80;;;;;;;6.46;80.26;96234.61;224513;1289;22567;-81
2023/11/04 23:40:13;;;;;;;11.00;6.00;;;;;;;6.49;79.75;96221.05;224511;1292;22563;-80
2023/11/04 23:45:16;;;;;;;9.80;6.30;;;;;;;6.53;79.49;96208.96;224508;1289;22559;-80
2023/11/04 23:50:22;;;;;;;9.60;5.50;;;;;;;6.53;79.75;96195.42;224401;1292;22558;-81
2023/11/04 23:55:24;;;;;;;11.60;5.80;;;;;;;6.53;79.72;96188.92;224333;1289;22595;-81
